Time;durP1;ratioP1;P1;durP2;ratioP2;P2;SDS_P1;SDS_P2;PMS_P1;PMS_P2;Temp;Humidity;BMP_temperature;BMP_pressure;BME280_temperature;BME280_humidity;BME280_pressure;Samples;Min_cycle;Max_cycle;Signal;HPM_P1;HPM_P2
2023/04/04 00:01:07;;;;;;;3.80;1.80;;;;;;;;;;105735;1251;60418;-48
2023/04/04 00:03:37;;;;;;;0.40;0.30;;;;;;;;;;105677;1251;61903;-47
2023/04/04 00:06:06;;;;;;;0.50;0.40;;;;;;;;;;109410;1250;59304;-49
2023/04/04 00:08:34;;;;;;;0.50;0.40;;;;;;;;;;109393;1250;59754;-47
2023/04/04 00:11:02;;;;;;;0.40;0.40;;;;;;;;;;109378;1250;58229;-49
2023/04/04 00:13:31;;;;;;;0.70;0.50;;;;;;;;;;109430;1250;58373;-47
2023/04/04 00:15:58;;;;;;;1.30;0.30;;;;;;;;;;109298;1251;60772;-50
2023/04/04 00:18:27;;;;;;;1.40;0.40;;;;;;;;;;109395;1250;58224;-47
2023/04/04 00:20:55;;;;;;;0.40;0.30;;;;;;;;;;109408;1251;60702;-51
2023/04/04 00:23:26;;;;;;;0.50;0.40;;;;;;;;;;109384;1250;58231;-48
2023/04/04 00:25:54;;;;;;;0.30;0.30;;;;;;;;;;109405;1250;58609;-48
2023/04/04 00:28:22;;;;;;;0.50;0.40;;;;;;;;;;109467;1250;62323;-48
2023/04/04 00:30:50;;;;;;;0.30;0.30;;;;;;;;;;109026;1250;58760;-49
2023/04/04 00:33:18;;;;;;;1.10;0.50;;;;;;;;;;105891;1251;60546;-50
2023/04/04 00:35:47;;;;;;;0.40;0.30;;;;;;;;;;105794;1254;60408;-46
2023/04/04 00:38:15;;;;;;;0.40;0.30;;;;;;;;;;105783;1251;60510;-46
2023/04/04 00:40:45;;;;;;;0.50;0.40;;;;;;;;;;105693;1251;62036;-44
2023/04/04 00:43:13;;;;;;;0.70;0.40;;;;;;;;;;106607;1250;60555;-50
2023/04/04 00:45:41;;;;;;;0.40;0.40;;;;;;;;;;105612;1251;60503;-45
2023/04/04 00:48:10;;;;;;;0.40;0.40;;;;;;;;;;105613;1254;60542;-48
2023/04/04 00:50:38;;;;;;;0.40;0.40;;;;;;;;;;105906;1250;60517;-44
2023/04/04 00:53:09;;;;;;;0.40;0.40;;;;;;;;;;105946;1251;62162;-48
2023/04/04 00:55:38;;;;;;;0.60;0.40;;;;;;;;;;105570;1254;60648;-50
2023/04/04 00:58:07;;;;;;;0.30;0.30;;;;;;;;;;107571;1254;60486;-47
2023/04/04 01:00:35;;;;;;;1.00;0.40;;;;;;;;;;105643;1256;60352;-47
2023/04/04 01:03:23;;;;;;;1.60;0.40;;;;;;;;;;106478;1251;59507;-51
2023/04/04 01:05:53;;;;;;;0.60;0.50;;;;;;;;;;105751;1254;62149;-49
2023/04/04 01:08:22;;;;;;;0.60;0.50;;;;;;;;;;105629;1256;60406;-47
2023/04/04 01:10:50;;;;;;;0.40;0.40;;;;;;;;;;106077;1251;61074;-51
2023/04/04 01:13:18;;;;;;;0.60;0.50;;;;;;;;;;105725;1255;60488;-50
2023/04/04 01:15:46;;;;;;;0.70;0.50;;;;;;;;;;105825;1250;60536;-48
2023/04/04 01:18:16;;;;;;;0.70;0.60;;;;;;;;;;105471;1251;61864;-48
2023/04/04 01:20:49;;;;;;;0.50;0.40;;;;;;;;;;106783;1251;60451;-49
2023/04/04 01:23:17;;;;;;;1.00;0.40;;;;;;;;;;105970;1251;60540;-46
2023/04/04 01:25:47;;;;;;;0.50;0.50;;;;;;;;;;106171;1250;60613;-50
2023/04/04 01:28:15;;;;;;;0.50;0.40;;;;;;;;;;105736;1250;61437;-47
2023/04/04 01:30:44;;;;;;;0.50;0.50;;;;;;;;;;106501;1251;62248;-50
2023/04/04 01:33:15;;;;;;;0.50;0.40;;;;;;;;;;109233;1251;59374;-51
2023/04/04 01:35:50;;;;;;;0.50;0.40;;;;;;;;;;107343;1254;59444;-47
2023/04/04 01:38:37;;;;;;;0.50;0.40;;;;;;;;;;105800;1256;60738;-47
2023/04/04 01:41:06;;;;;;;0.50;0.40;;;;;;;;;;105717;1254;60536;-50
2023/04/04 01:43:36;;;;;;;0.60;0.50;;;;;;;;;;107299;1253;62157;-49
2023/04/04 01:46:04;;;;;;;0.60;0.50;;;;;;;;;;105843;1250;237195;-49
2023/04/04 01:49:13;;;;;;;0.60;0.50;;;;;;;;;;102818;1288;600387;-50
2023/04/04 01:51:42;;;;;;;0.90;0.40;;;;;;;;;;104815;1267;59700;-49
2023/04/04 01:54:10;;;;;;;0.50;0.50;;;;;;;;;;107836;1264;58012;-47
2023/04/04 01:56:39;;;;;;;0.40;0.40;;;;;;;;;;105380;1268;60491;-49
2023/04/04 01:59:07;;;;;;;0.70;0.50;;;;;;;;;;105433;1268;58955;-49
2023/04/04 02:01:37;;;;;;;0.60;0.50;;;;;;;;;;104580;1264;61741;-46
2023/04/04 02:04:06;;;;;;;0.50;0.50;;;;;;;;;;108139;1254;110733;-45
2023/04/04 02:06:39;;;;;;;0.80;0.60;;;;;;;;;;105381;1260;58999;-50
2023/04/04 02:09:07;;;;;;;0.60;0.60;;;;;;;;;;106005;1257;61300;-48
2023/04/04 02:11:36;;;;;;;0.60;0.50;;;;;;;;;;105529;1256;59814;-48
2023/04/04 02:14:04;;;;;;;0.60;0.50;;;;;;;;;;105448;1259;60940;-47
2023/04/04 02:16:33;;;;;;;0.90;0.70;;;;;;;;;;105416;1258;59762;-48
2023/04/04 02:19:01;;;;;;;0.50;0.50;;;;;;;;;;105505;1259;59638;-48
2023/04/04 02:21:30;;;;;;;1.00;0.50;;;;;;;;;;106155;1252;61557;-48
2023/04/04 02:23:58;;;;;;;0.60;0.50;;;;;;;;;;106491;1254;59509;-50
2023/04/04 02:26:26;;;;;;;0.60;0.50;;;;;;;;;;106395;1259;60708;-47
2023/04/04 02:28:53;;;;;;;0.70;0.50;;;;;;;;;;107438;1256;59622;-51
2023/04/04 02:31:22;;;;;;;0.60;0.50;;;;;;;;;;106826;1258;59544;-49
2023/04/04 02:33:51;;;;;;;1.60;0.70;;;;;;;;;;105590;1258;60334;-48
2023/04/04 02:36:20;;;;;;;0.60;0.50;;;;;;;;;;105606;1261;59727;-47
2023/04/04 02:38:49;;;;;;;1.10;0.50;;;;;;;;;;109028;1253;60743;-49
2023/04/04 02:41:17;;;;;;;0.70;0.50;;;;;;;;;;109000;1253;57482;-48
2023/04/04 02:43:45;;;;;;;0.90;0.50;;;;;;;;;;108959;1253;57495;-50
2023/04/04 02:46:13;;;;;;;0.70;0.50;;;;;;;;;;105727;1259;60522;-48
2023/04/04 02:48:54;;;;;;;1.20;0.50;;;;;;;;;;105953;1256;59602;-47
2023/04/04 02:51:22;;;;;;;0.80;0.60;;;;;;;;;;109192;1253;59705;-50
2023/04/04 02:53:50;;;;;;;0.70;0.50;;;;;;;;;;109138;1253;58626;-50
2023/04/04 02:56:21;;;;;;;0.70;0.50;;;;;;;;;;108957;1259;58593;-49
2023/04/04 02:58:49;;;;;;;0.80;0.60;;;;;;;;;;109170;1257;61445;-49
2023/04/04 03:01:17;;;;;;;0.80;0.60;;;;;;;;;;108932;1254;58281;-49
2023/04/04 03:03:46;;;;;;;0.70;0.60;;;;;;;;;;108820;1259;60828;-51
2023/04/04 03:06:14;;;;;;;1.00;0.60;;;;;;;;;;109157;1256;57400;-49
2023/04/04 03:08:43;;;;;;;1.80;0.60;;;;;;;;;;109135;1257;57546;-50
2023/04/04 03:11:11;;;;;;;1.80;0.80;;;;;;;;;;109172;1254;61891;-48
2023/04/04 03:13:39;;;;;;;3.60;0.80;;;;;;;;;;108965;1253;58518;-47
2023/04/04 03:16:07;;;;;;;2.40;0.80;;;;;;;;;;108949;1257;59876;-48
2023/04/04 03:18:47;;;;;;;0.90;0.70;;;;;;;;;;109024;1257;57770;-48
2023/04/04 03:21:18;;;;;;;1.00;0.70;;;;;;;;;;108880;1254;58268;-51
2023/04/04 03:23:47;;;;;;;2.40;0.60;;;;;;;;;;108807;1253;60522;-49
2023/04/04 03:26:15;;;;;;;2.60;0.80;;;;;;;;;;106235;1257;59621;-48
2023/04/04 03:28:44;;;;;;;1.40;0.70;;;;;;;;;;105328;1260;59742;-50
2023/04/04 03:31:13;;;;;;;0.80;0.80;;;;;;;;;;106378;1259;59718;-46
2023/04/04 03:33:42;;;;;;;1.50;0.80;;;;;;;;;;105406;1259;59711;-43
2023/04/04 03:36:11;;;;;;;2.00;0.70;;;;;;;;;;105414;1255;60452;-49
2023/04/04 03:38:39;;;;;;;0.80;0.60;;;;;;;;;;107971;1260;57475;-50
2023/04/04 03:41:09;;;;;;;1.60;1.00;;;;;;;;;;105766;1259;60246;-49
2023/04/04 03:43:40;;;;;;;1.90;1.50;;;;;;;;;;105794;1259;59661;-48
2023/04/04 03:46:08;;;;;;;1.20;0.80;;;;;;;;;;105751;1259;59596;-50
2023/04/04 03:48:36;;;;;;;1.90;0.80;;;;;;;;;;107482;1257;61301;-51
2023/04/04 03:51:06;;;;;;;1.10;0.80;;;;;;;;;;105401;1253;59702;-49
2023/04/04 03:53:35;;;;;;;1.10;0.80;;;;;;;;;;105408;1258;60724;-46
2023/04/04 03:56:03;;;;;;;1.30;0.90;;;;;;;;;;105372;1264;59606;-52
2023/04/04 03:58:34;;;;;;;2.30;0.80;;;;;;;;;;106865;1257;59543;-48
2023/04/04 04:01:02;;;;;;;1.10;1.00;;;;;;;;;;105417;1259;61365;-49
2023/04/04 04:03:30;;;;;;;1.50;0.90;;;;;;;;;;105376;1258;59918;-48
2023/04/04 04:05:58;;;;;;;2.70;1.20;;;;;;;;;;105201;1253;60635;-50
2023/04/04 04:08:26;;;;;;;2.30;1.00;;;;;;;;;;105253;1260;59746;-47
2023/04/04 04:11:02;;;;;;;4.90;1.00;;;;;;;;;;105668;1257;59628;-50
2023/04/04 04:13:30;;;;;;;2.20;1.10;;;;;;;;;;105579;1257;61420;-47
2023/04/04 04:15:58;;;;;;;2.20;1.10;;;;;;;;;;106982;1254;58430;-52
2023/04/04 04:18:28;;;;;;;4.10;1.10;;;;;;;;;;105503;1254;60564;-50
2023/04/04 04:20:58;;;;;;;2.40;1.30;;;;;;;;;;105023;1260;59672;-48
2023/04/04 04:23:27;;;;;;;1.70;0.90;;;;;;;;;;106991;1256;58977;-46
2023/04/04 04:25:55;;;;;;;2.40;0.90;;;;;;;;;;105283;1260;61121;-45
2023/04/04 04:28:24;;;;;;;1.20;0.90;;;;;;;;;;105025;1256;59738;-48
2023/04/04 04:31:03;;;;;;;1.90;0.80;;;;;;;;;;105075;1254;61013;-48
2023/04/04 04:33:32;;;;;;;2.20;1.00;;;;;;;;;;105222;1259;59710;-48
2023/04/04 04:36:06;;;;;;;1.10;0.70;;;;;;;;;;105495;1260;60748;-46
2023/04/04 04:38:53;;;;;;;2.40;0.90;;;;;;;;;;105272;1260;61420;-47
2023/04/04 04:41:21;;;;;;;2.50;1.00;;;;;;;;;;105071;1268;59582;-48
2023/04/04 04:43:51;;;;;;;1.50;1.00;;;;;;;;;;105286;1258;60809;-45
2023/04/04 04:46:20;;;;;;;1.30;0.80;;;;;;;;;;105785;1253;59686;-44
2023/04/04 04:48:55;;;;;;;3.00;1.00;;;;;;;;;;105472;1254;59637;-51
2023/04/04 04:51:27;;;;;;;1.40;1.10;;;;;;;;;;105454;1259;61332;-48
2023/04/04 04:53:55;;;;;;;3.50;0.90;;;;;;;;;;105197;1268;59965;-48
2023/04/04 04:56:29;;;;;;;1.30;1.00;;;;;;;;;;105806;1264;60665;-47
2023/04/04 04:59:06;;;;;;;1.40;0.90;;;;;;;;;;105604;1257;59611;-47
2023/04/04 05:01:42;;;;;;;1.80;0.90;;;;;;;;;;105831;1251;59596;-48
2023/04/04 05:04:10;;;;;;;1.30;1.20;;;;;;;;;;105559;1258;60433;-46
2023/04/04 05:06:43;;;;;;;1.70;1.10;;;;;;;;;;108461;1251;59566;-49
2023/04/04 05:09:13;;;;;;;1.70;1.00;;;;;;;;;;105745;1254;61052;-47
2023/04/04 05:11:46;;;;;;;1.80;1.00;;;;;;;;;;106246;1252;59715;-46
2023/04/04 05:14:14;;;;;;;1.80;0.80;;;;;;;;;;106935;1251;59585;-48
2023/04/04 05:16:52;;;;;;;1.30;1.00;;;;;;;;;;105802;1254;61981;-47
2023/04/04 05:19:21;;;;;;;1.20;0.90;;;;;;;;;;105875;1254;59461;-46
2023/04/04 05:21:52;;;;;;;1.30;0.90;;;;;;;;;;106438;1256;59644;-51
2023/04/04 05:24:34;;;;;;;1.20;0.90;;;;;;;;;;106474;1254;59730;-47
2023/04/04 05:27:02;;;;;;;1.30;1.00;;;;;;;;;;108860;1254;58903;-45
2023/04/04 05:29:35;;;;;;;1.40;1.10;;;;;;;;;;105690;1254;60312;-48
2023/04/04 05:32:09;;;;;;;1.20;1.00;;;;;;;;;;106555;1251;59625;-49
2023/04/04 05:34:39;;;;;;;1.90;1.40;;;;;;;;;;107490;1257;59692;-49
2023/04/04 05:37:10;;;;;;;1.80;1.40;;;;;;;;;;109266;1254;57510;-47
2023/04/04 05:39:43;;;;;;;1.20;1.00;;;;;;;;;;109299;1251;57717;-48
2023/04/04 05:42:11;;;;;;;1.50;0.90;;;;;;;;;;109242;1250;61209;-46
2023/04/04 05:44:45;;;;;;;1.60;1.00;;;;;;;;;;109274;1254;57728;-51
2023/04/04 05:47:13;;;;;;;2.90;1.00;;;;;;;;;;109231;1251;59462;-48
2023/04/04 05:49:44;;;;;;;1.00;0.90;;;;;;;;;;109221;1251;57757;-48
2023/04/04 05:52:12;;;;;;;1.00;0.90;;;;;;;;;;109307;1251;57660;-50
2023/04/04 05:54:41;;;;;;;1.30;1.10;;;;;;;;;;109293;1250;60410;-48
2023/04/04 05:57:14;;;;;;;1.10;0.90;;;;;;;;;;109304;1251;57514;-48
2023/04/04 05:59:48;;;;;;;1.50;0.90;;;;;;;;;;109240;1251;59391;-48
2023/04/04 06:02:17;;;;;;;1.30;1.00;;;;;;;;;;109225;1251;58403;-49
2023/04/04 06:04:55;;;;;;;1.10;0.90;;;;;;;;;;109178;1251;59206;-48
2023/04/04 06:07:30;;;;;;;1.60;1.00;;;;;;;;;;109258;1251;62159;-48
2023/04/04 06:09:58;;;;;;;1.90;1.00;;;;;;;;;;109239;1251;58888;-50
2023/04/04 06:12:27;;;;;;;1.10;0.70;;;;;;;;;;109129;1251;60723;-51
2023/04/04 06:14:55;;;;;;;1.20;0.80;;;;;;;;;;109104;1251;58987;-48
2023/04/04 06:17:23;;;;;;;1.90;0.80;;;;;;;;;;109142;1250;60020;-48
2023/04/04 06:19:54;;;;;;;1.00;0.70;;;;;;;;;;109283;1251;62150;-51
2023/04/04 06:22:22;;;;;;;1.30;0.80;;;;;;;;;;109172;1251;58015;-51
2023/04/04 06:24:52;;;;;;;0.90;0.80;;;;;;;;;;109221;1251;60490;-52
2023/04/04 06:27:21;;;;;;;0.90;0.70;;;;;;;;;;107028;1251;60540;-47
2023/04/04 06:29:49;;;;;;;0.90;0.70;;;;;;;;;;105892;1256;60710;-52
2023/04/04 06:32:22;;;;;;;1.20;0.80;;;;;;;;;;104953;1251;62099;-51
2023/04/04 06:34:51;;;;;;;1.30;1.00;;;;;;;;;;107793;1251;58492;-48
2023/04/04 06:37:30;;;;;;;1.50;0.80;;;;;;;;;;105113;1251;60721;-50
2023/04/04 06:40:08;;;;;;;0.90;0.80;;;;;;;;;;104934;1250;60419;-51
2023/04/04 06:42:36;;;;;;;1.10;0.80;;;;;;;;;;109152;1250;58158;-51
2023/04/04 06:45:09;;;;;;;1.00;0.80;;;;;;;;;;109133;1252;62060;-49
2023/04/04 06:47:38;;;;;;;2.10;1.30;;;;;;;;;;106071;1251;60540;-48
2023/04/04 06:50:06;;;;;;;1.20;0.90;;;;;;;;;;106336;1251;60568;-51
2023/04/04 06:52:36;;;;;;;1.30;1.00;;;;;;;;;;105612;1255;60426;-48
2023/04/04 06:55:07;;;;;;;2.30;0.80;;;;;;;;;;105552;1251;60414;-48
2023/04/04 06:57:41;;;;;;;4.20;1.00;;;;;;;;;;105845;1251;62718;-47
2023/04/04 07:00:09;;;;;;;1.10;1.00;;;;;;;;;;107718;1251;58869;-46
2023/04/04 07:02:46;;;;;;;2.10;1.10;;;;;;;;;;105388;1251;60629;-49
2023/04/04 07:05:16;;;;;;;1.10;1.00;;;;;;;;;;106311;1254;60389;-46
2023/04/04 07:07:45;;;;;;;1.20;1.00;;;;;;;;;;105827;1251;60371;-49
2023/04/04 07:10:13;;;;;;;1.30;1.00;;;;;;;;;;106531;1254;62074;-44
2023/04/04 07:12:41;;;;;;;1.60;1.20;;;;;;;;;;105497;1251;60534;-44
2023/04/04 07:15:12;;;;;;;1.70;1.50;;;;;;;;;;105289;1254;60630;-45
2023/04/04 07:17:40;;;;;;;2.10;1.40;;;;;;;;;;105413;1251;60427;-46
2023/04/04 07:20:08;;;;;;;4.50;1.80;;;;;;;;;;105943;1254;60408;-48
2023/04/04 07:22:39;;;;;;;1.70;1.20;;;;;;;;;;105780;1251;61841;-49
2023/04/04 07:25:08;;;;;;;2.20;1.40;;;;;;;;;;106140;1251;60415;-47
2023/04/04 07:27:36;;;;;;;1.80;1.60;;;;;;;;;;105929;1251;60642;-47
2023/04/04 07:30:05;;;;;;;3.00;1.70;;;;;;;;;;105839;1250;60505;-45
2023/04/04 07:32:34;;;;;;;3.40;2.00;;;;;;;;;;106413;1254;60409;-48
2023/04/04 07:35:04;;;;;;;2.60;1.80;;;;;;;;;;109042;1250;62403;-48
2023/04/04 07:37:32;;;;;;;1.90;1.70;;;;;;;;;;109202;1254;58351;-47
2023/04/04 07:40:00;;;;;;;1.70;1.40;;;;;;;;;;106365;1252;60456;-48
2023/04/04 07:42:29;;;;;;;2.40;2.20;;;;;;;;;;106134;1254;60592;-51
2023/04/04 07:44:57;;;;;;;4.00;2.20;;;;;;;;;;109140;1250;59377;-47
2023/04/04 07:47:26;;;;;;;4.60;2.10;;;;;;;;;;106898;1250;62213;-49
2023/04/04 07:49:54;;;;;;;6.40;2.10;;;;;;;;;;106275;1254;60381;-46
2023/04/04 07:52:22;;;;;;;2.10;1.80;;;;;;;;;;106384;1250;60760;-50
2023/04/04 07:54:51;;;;;;;3.20;2.40;;;;;;;;;;105910;1254;60434;-48
2023/04/04 07:57:20;;;;;;;3.40;2.50;;;;;;;;;;105706;1251;60516;-46
2023/04/04 07:59:48;;;;;;;4.00;2.40;;;;;;;;;;106043;1251;61865;-47
2023/04/04 08:02:21;;;;;;;2.80;2.20;;;;;;;;;;105584;1256;60533;-49
2023/04/04 08:04:49;;;;;;;2.70;2.50;;;;;;;;;;106443;1250;60371;-48
2023/04/04 08:07:17;;;;;;;5.30;3.40;;;;;;;;;;105414;1253;60505;-47
2023/04/04 08:09:44;;;;;;;2.50;2.30;;;;;;;;;;105782;1251;60510;-46
2023/04/04 08:12:13;;;;;;;2.30;2.10;;;;;;;;;;106023;1250;62326;-47
2023/04/04 08:14:41;;;;;;;5.10;2.50;;;;;;;;;;105692;1254;60441;-49
2023/04/04 08:17:11;;;;;;;7.80;3.50;;;;;;;;;;106553;1250;60725;-52
2023/04/04 08:19:39;;;;;;;4.20;3.20;;;;;;;;;;107332;1250;60716;-47
2023/04/04 08:22:08;;;;;;;3.80;3.00;;;;;;;;;;106310;1254;60505;-47
2023/04/04 08:24:36;;;;;;;3.30;3.10;;;;;;;;;;105734;1251;61523;-49
2023/04/04 08:27:05;;;;;;;4.60;2.80;;;;;;;;;;109215;1250;58765;-49
2023/04/04 08:29:33;;;;;;;4.50;2.90;;;;;;;;;;106155;1251;60833;-47
2023/04/04 08:32:02;;;;;;;5.00;2.90;;;;;;;;;;106203;1252;60778;-47
2023/04/04 08:36:44;;;;;;;4.70;2.20;;;;;;;;;;102477;1294;601156;-46
2023/04/04 08:39:13;;;;;;;3.70;2.50;;;;;;;;;;105591;1264;59027;-47
2023/04/04 08:41:42;;;;;;;5.00;2.50;;;;;;;;;;107641;1263;57336;-46
2023/04/04 08:44:12;;;;;;;3.30;1.90;;;;;;;;;;104897;1268;60787;-47
2023/04/04 08:46:40;;;;;;;37.10;26.40;;;;;;;;;;104805;1268;59015;-48
2023/04/04 08:49:09;;;;;;;3.80;2.40;;;;;;;;;;105632;1264;60813;-48
2023/04/04 08:51:37;;;;;;;4.80;2.90;;;;;;;;;;104767;1263;59211;-49
2023/04/04 08:54:05;;;;;;;5.00;3.80;;;;;;;;;;105469;1260;59409;-49
2023/04/04 08:56:34;;;;;;;5.80;5.10;;;;;;;;;;107098;1265;60705;-47
2023/04/04 08:59:03;;;;;;;4.90;2.80;;;;;;;;;;105808;1265;59033;-50
2023/04/04 09:01:32;;;;;;;4.70;4.30;;;;;;;;;;104756;1260;60660;-49
2023/04/04 09:04:00;;;;;;;2.80;2.50;;;;;;;;;;105843;1267;59638;-48
2023/04/04 09:06:29;;;;;;;5.20;3.50;;;;;;;;;;105137;1263;59675;-48
2023/04/04 09:08:58;;;;;;;4.80;3.70;;;;;;;;;;104856;1263;61702;-49
2023/04/04 09:11:26;;;;;;;7.90;6.50;;;;;;;;;;104909;1264;59913;-49
2023/04/04 09:13:54;;;;;;;13.00;11.80;;;;;;;;;;104626;1264;60903;-47
2023/04/04 09:16:22;;;;;;;9.10;8.40;;;;;;;;;;104990;1263;59649;-48
2023/04/04 09:18:51;;;;;;;2.50;2.30;;;;;;;;;;104828;1263;59662;-48
2023/04/04 09:21:19;;;;;;;3.30;1.80;;;;;;;;;;104654;1265;60989;-47
2023/04/04 09:23:56;;;;;;;2.30;1.50;;;;;;;;;;106462;1262;57921;-50
2023/04/04 09:26:24;;;;;;;2.20;1.60;;;;;;;;;;105068;1263;59852;-47
2023/04/04 09:28:52;;;;;;;3.20;1.80;;;;;;;;;;104689;1263;59631;-50
2023/04/04 09:31:20;;;;;;;3.60;1.70;;;;;;;;;;104614;1263;59615;-50
2023/04/04 09:33:49;;;;;;;3.30;2.10;;;;;;;;;;104590;1262;62922;-49
2023/04/04 09:36:17;;;;;;;2.30;2.10;;;;;;;;;;104800;1262;59685;-50
2023/04/04 09:38:47;;;;;;;2.50;2.30;;;;;;;;;;105089;1262;59848;-50
2023/04/04 09:41:15;;;;;;;2.30;2.10;;;;;;;;;;105382;1262;59891;-48
2023/04/04 09:43:44;;;;;;;4.60;3.30;;;;;;;;;;104691;1263;59778;-51
2023/04/04 09:46:11;;;;;;;7.30;2.80;;;;;;;;;;104689;1262;59826;-48
2023/04/04 09:48:40;;;;;;;3.70;2.50;;;;;;;;;;105954;1263;59727;-50
2023/04/04 09:51:10;;;;;;;3.50;2.90;;;;;;;;;;106110;1262;60380;-49
2023/04/04 09:53:40;;;;;;;5.40;3.90;;;;;;;;;;104880;1267;59656;-51
2023/04/04 09:56:10;;;;;;;2.30;1.90;;;;;;;;;;104765;1264;59618;-49
2023/04/04 09:58:39;;;;;;;4.00;1.50;;;;;;;;;;105715;1265;61358;-47
2023/04/04 10:01:23;;;;;;;2.90;2.20;;;;;;;;;;105719;1263;59812;-50
2023/04/04 10:03:53;;;;;;;2.30;2.00;;;;;;;;;;104958;1267;61125;-48
2023/04/04 10:06:21;;;;;;;2.90;2.60;;;;;;;;;;108492;1266;57578;-50
2023/04/04 10:08:51;;;;;;;4.50;2.30;;;;;;;;;;105803;1263;59905;-48
2023/04/04 10:11:29;;;;;;;2.30;1.90;;;;;;;;;;108575;1262;61345;-46
2023/04/04 10:13:57;;;;;;;3.70;2.10;;;;;;;;;;108609;1262;60300;-47
2023/04/04 10:16:25;;;;;;;2.70;2.10;;;;;;;;;;108492;1263;59946;-49
2023/04/04 10:18:53;;;;;;;2.20;1.50;;;;;;;;;;108574;1262;58333;-46
2023/04/04 10:21:23;;;;;;;2.10;1.90;;;;;;;;;;108540;1262;57637;-49
2023/04/04 10:23:51;;;;;;;3.60;2.00;;;;;;;;;;108625;1262;60362;-49
2023/04/04 10:26:19;;;;;;;4.50;2.20;;;;;;;;;;108811;1258;57851;-47
2023/04/04 10:28:52;;;;;;;3.50;1.90;;;;;;;;;;108681;1259;59743;-47
2023/04/04 10:31:23;;;;;;;2.40;1.70;;;;;;;;;;108746;1258;57470;-47
2023/04/04 10:33:54;;;;;;;3.20;2.00;;;;;;;;;;108802;1259;57496;-45
2023/04/04 10:36:25;;;;;;;3.50;2.80;;;;;;;;;;108124;1262;61414;-52
2023/04/04 10:38:57;;;;;;;2.80;2.50;;;;;;;;;;108588;1259;57923;-48
2023/04/04 10:41:26;;;;;;;4.30;2.30;;;;;;;;;;108626;1259;60830;-49
2023/04/04 10:43:54;;;;;;;13.50;11.80;;;;;;;;;;106160;1263;59741;-43
2023/04/04 10:46:29;;;;;;;12.50;8.80;;;;;;;;;;108508;1259;57954;-51
2023/04/04 10:48:58;;;;;;;3.20;2.50;;;;;;;;;;108478;1262;61514;-50
2023/04/04 10:51:26;;;;;;;25.20;18.80;;;;;;;;;;108544;1259;58509;-47
2023/04/04 10:53:54;;;;;;;10.00;5.40;;;;;;;;;;106468;1263;59746;-47
2023/04/04 10:56:22;;;;;;;3.00;2.80;;;;;;;;;;104685;1263;59714;-45
2023/04/04 10:58:50;;;;;;;3.40;2.50;;;;;;;;;;104885;1259;59739;-47
2023/04/04 11:01:20;;;;;;;3.30;1.50;;;;;;;;;;107048;1259;62030;-46
2023/04/04 11:04:07;;;;;;;3.10;2.70;;;;;;;;;;105073;1260;59653;-46
2023/04/04 11:06:59;;;;;;;3.30;2.60;;;;;;;;;;104556;1259;60805;-48
2023/04/04 11:09:45;;;;;;;2.50;2.10;;;;;;;;;;104581;1259;59667;-46
2023/04/04 11:12:22;;;;;;;2.80;1.70;;;;;;;;;;106764;1262;58674;-46
2023/04/04 11:15:09;;;;;;;3.00;2.10;;;;;;;;;;105183;1259;60500;-50
2023/04/04 11:17:57;;;;;;;4.00;3.00;;;;;;;;;;104531;1259;59538;-48
2023/04/04 11:20:32;;;;;;;5.60;3.80;;;;;;;;;;105969;1260;60597;-47
2023/04/04 11:23:07;;;;;;;3.80;3.50;;;;;;;;;;105023;1259;59733;-47
2023/04/04 11:25:37;;;;;;;5.10;1.50;;;;;;;;;;105232;1262;59970;-50
2023/04/04 11:28:06;;;;;;;2.80;2.40;;;;;;;;;;104904;1259;60023;-47
2023/04/04 11:30:36;;;;;;;3.10;1.90;;;;;;;;;;104829;1262;62260;-50
2023/04/04 11:33:05;;;;;;;4.40;1.50;;;;;;;;;;105089;1262;60907;-50
2023/04/04 11:35:39;;;;;;;2.00;1.50;;;;;;;;;;105117;1263;61409;-50
2023/04/04 11:38:11;;;;;;;1.60;1.40;;;;;;;;;;105273;1262;59634;-48
2023/04/04 11:40:41;;;;;;;3.10;1.30;;;;;;;;;;104483;1262;61373;-50
2023/04/04 11:43:15;;;;;;;1.70;1.30;;;;;;;;;;104589;1262;59618;-50
2023/04/04 11:45:44;;;;;;;5.50;4.40;;;;;;;;;;105148;1262;60220;-48
2023/04/04 11:48:16;;;;;;;3.10;2.80;;;;;;;;;;106267;1262;59691;-48
2023/04/04 11:50:48;;;;;;;2.80;1.70;;;;;;;;;;104972;1261;59480;-48
2023/04/04 11:53:16;;;;;;;1.90;1.20;;;;;;;;;;105144;1259;61431;-46
2023/04/04 11:55:48;;;;;;;2.30;1.40;;;;;;;;;;104565;1262;59853;-46
2023/04/04 11:58:16;;;;;;;4.30;1.70;;;;;;;;;;104845;1260;60693;-53
2023/04/04 12:00:46;;;;;;;6.50;2.90;;;;;;;;;;105645;1259;58457;-52
2023/04/04 12:03:17;;;;;;;1.50;1.20;;;;;;;;;;104577;1262;59708;-48
2023/04/04 12:05:45;;;;;;;1.20;1.00;;;;;;;;;;105974;1259;61325;-50
2023/04/04 12:08:17;;;;;;;3.20;1.30;;;;;;;;;;105333;1256;59608;-48
2023/04/04 12:10:45;;;;;;;3.90;2.30;;;;;;;;;;105513;1259;61221;-50
2023/04/04 12:13:15;;;;;;;2.00;1.40;;;;;;;;;;105014;1256;59708;-45
2023/04/04 12:15:43;;;;;;;7.90;5.30;;;;;;;;;;106584;1259;59519;-46
2023/04/04 12:18:19;;;;;;;17.50;9.70;;;;;;;;;;105136;1254;60856;-46
2023/04/04 12:20:47;;;;;;;12.30;9.30;;;;;;;;;;105268;1259;59421;-51
2023/04/04 12:23:16;;;;;;;2.90;2.20;;;;;;;;;;105355;1256;60884;-50
2023/04/04 12:25:43;;;;;;;2.90;2.60;;;;;;;;;;105291;1254;59628;-51
2023/04/04 12:28:14;;;;;;;2.80;1.60;;;;;;;;;;104912;1256;59747;-46
2023/04/04 12:30:42;;;;;;;4.00;2.90;;;;;;;;;;104748;1254;61314;-46
2023/04/04 12:33:10;;;;;;;6.10;5.20;;;;;;;;;;105447;1257;59625;-48
2023/04/04 12:35:39;;;;;;;2.60;2.00;;;;;;;;;;105372;1254;59747;-48
2023/04/04 12:38:09;;;;;;;5.70;1.80;;;;;;;;;;106112;1258;59872;-49
2023/04/04 12:40:38;;;;;;;2.80;2.20;;;;;;;;;;106860;1256;59634;-50
2023/04/04 12:43:07;;;;;;;2.70;2.00;;;;;;;;;;105512;1255;60026;-47
2023/04/04 12:45:38;;;;;;;2.70;2.10;;;;;;;;;;105706;1256;59669;-47
2023/04/04 12:48:14;;;;;;;1.80;1.60;;;;;;;;;;108825;1254;60774;-50
2023/04/04 12:50:51;;;;;;;5.70;4.60;;;;;;;;;;107598;1254;60534;-45
2023/04/04 12:53:21;;;;;;;2.50;2.30;;;;;;;;;;105204;1259;60479;-48
2023/04/04 12:56:01;;;;;;;4.70;4.20;;;;;;;;;;109019;1254;62032;-50
2023/04/04 12:58:30;;;;;;;11.50;9.40;;;;;;;;;;108895;1254;58370;-50
2023/04/04 13:00:58;;;;;;;3.90;3.10;;;;;;;;;;109007;1254;60768;-50
2023/04/04 13:03:27;;;;;;;5.50;3.30;;;;;;;;;;109065;1254;58403;-49
2023/04/04 13:05:56;;;;;;;3.90;2.10;;;;;;;;;;109072;1254;59374;-48
2023/04/04 13:08:24;;;;;;;3.90;2.30;;;;;;;;;;109098;1255;62259;-51
2023/04/04 13:10:58;;;;;;;11.00;9.10;;;;;;;;;;109046;1254;58162;-48
2023/04/04 13:13:33;;;;;;;4.20;3.00;;;;;;;;;;109040;1254;60965;-49
2023/04/04 13:16:06;;;;;;;3.20;3.00;;;;;;;;;;108363;1256;60447;-47
2023/04/04 13:18:42;;;;;;;3.40;3.10;;;;;;;;;;105342;1253;60576;-47
2023/04/04 13:21:10;;;;;;;6.10;4.60;;;;;;;;;;109189;1253;62601;-46
2023/04/04 13:23:39;;;;;;;6.50;4.10;;;;;;;;;;109020;1252;58896;-47
2023/04/04 13:26:08;;;;;;;5.50;4.80;;;;;;;;;;109074;1253;59728;-47
2023/04/04 13:28:36;;;;;;;3.60;3.30;;;;;;;;;;109152;1253;58169;-46
2023/04/04 13:31:06;;;;;;;3.30;3.00;;;;;;;;;;109157;1253;60267;-49
2023/04/04 13:33:35;;;;;;;3.70;3.40;;;;;;;;;;109123;1252;62174;-46
2023/04/04 13:36:03;;;;;;;5.60;4.40;;;;;;;;;;108924;1253;58536;-48
2023/04/04 13:38:35;;;;;;;4.80;4.10;;;;;;;;;;109068;1253;60814;-49
2023/04/04 13:41:04;;;;;;;3.70;2.70;;;;;;;;;;109060;1253;58482;-47
2023/04/04 13:43:33;;;;;;;4.30;2.60;;;;;;;;;;105905;1253;59232;-53
2023/04/04 13:46:02;;;;;;;4.50;3.50;;;;;;;;;;106474;1252;63729;-48
2023/04/04 13:48:32;;;;;;;7.30;3.40;;;;;;;;;;106427;1259;60303;-50
2023/04/04 13:51:01;;;;;;;3.70;2.90;;;;;;;;;;105321;1258;60828;-51
2023/04/04 13:53:30;;;;;;;8.10;3.90;;;;;;;;;;106222;1252;60420;-49
2023/04/04 13:56:06;;;;;;;3.00;2.40;;;;;;;;;;105352;1253;60438;-50
2023/04/04 13:58:38;;;;;;;5.50;2.90;;;;;;;;;;109153;1252;62312;-48
2023/04/04 14:01:08;;;;;;;3.90;3.50;;;;;;;;;;105726;1253;60368;-48
2023/04/04 14:03:40;;;;;;;4.50;3.20;;;;;;;;;;105913;1253;60442;-46
2023/04/04 14:06:13;;;;;;;3.00;2.20;;;;;;;;;;105717;1259;60511;-50
2023/04/04 14:08:40;;;;;;;7.20;6.50;;;;;;;;;;104716;1253;60499;-50
2023/04/04 14:11:09;;;;;;;3.20;2.40;;;;;;;;;;105379;1253;61146;-51
2023/04/04 14:13:38;;;;;;;3.20;1.90;;;;;;;;;;105549;1257;60425;-50
2023/04/04 14:16:07;;;;;;;4.20;3.60;;;;;;;;;;105764;1254;60922;-51
2023/04/04 14:18:35;;;;;;;4.60;3.10;;;;;;;;;;105396;1254;60398;-48
2023/04/04 14:21:03;;;;;;;4.40;2.50;;;;;;;;;;106406;1256;61054;-49
2023/04/04 14:23:31;;;;;;;5.40;2.50;;;;;;;;;;105769;1255;61829;-49
2023/04/04 14:25:59;;;;;;;3.80;2.90;;;;;;;;;;106152;1253;60378;-49
2023/04/04 14:28:30;;;;;;;6.50;2.30;;;;;;;;;;105393;1257;61357;-49
2023/04/04 14:30:58;;;;;;;2.60;2.40;;;;;;;;;;105561;1253;60626;-45
2023/04/04 14:33:26;;;;;;;3.40;3.10;;;;;;;;;;105497;1253;60361;-48
2023/04/04 14:35:55;;;;;;;2.70;2.10;;;;;;;;;;105519;1254;62140;-47
2023/04/04 14:38:23;;;;;;;4.40;3.00;;;;;;;;;;105920;1255;60524;-49
2023/04/04 14:40:51;;;;;;;7.60;3.30;;;;;;;;;;105546;1253;60457;-51
2023/04/04 14:43:20;;;;;;;7.50;3.70;;;;;;;;;;105506;1259;60457;-47
2023/04/04 14:45:49;;;;;;;8.60;4.00;;;;;;;;;;105827;1258;60476;-47
2023/04/04 14:48:17;;;;;;;3.80;2.40;;;;;;;;;;105583;1253;60771;-48